createdAt,value
2017-11-19T00:00:52.124Z,99.30
2017-11-19T00:01:52.036Z,99.20
2017-11-19T00:03:45.369Z,99.20
2017-11-19T00:04:45.300Z,99.20
2017-11-19T00:06:38.575Z,99.30
2017-11-19T00:07:38.483Z,99.20
2017-11-19T00:09:31.749Z,99.39
2017-11-19T00:10:31.664Z,99.30
2017-11-19T00:12:24.911Z,99.77
2017-11-19T00:13:24.841Z,99.49
2017-11-19T00:15:18.120Z,99.20
2017-11-19T00:16:18.023Z,99.68
2017-11-19T00:18:11.371Z,99.30
2017-11-19T00:19:11.295Z,99.30
2017-11-19T00:21:04.576Z,99.39
2017-11-19T00:22:04.488Z,99.39
2017-11-19T00:23:57.740Z,99.20
2017-11-19T00:24:57.669Z,99.30
2017-11-19T00:26:50.948Z,99.30
2017-11-19T00:27:50.884Z,99.58
2017-11-19T00:29:44.123Z,99.58
2017-11-19T00:30:44.044Z,99.87
2017-11-19T00:32:37.290Z,99.30
2017-11-19T00:33:37.219Z,99.20
2017-11-19T00:35:30.490Z,99.11
2017-11-19T00:36:30.402Z,99.58
2017-11-19T00:38:23.663Z,98.63
2017-11-19T00:39:23.582Z,99.01
2017-11-19T00:41:16.857Z,98.82
2017-11-19T00:42:16.765Z,98.54
2017-11-19T00:44:10.024Z,98.44
2017-11-19T00:45:09.949Z,98.73
2017-11-19T00:47:03.222Z,98.44
2017-11-19T00:48:03.133Z,98.63
2017-11-19T00:49:56.416Z,98.82
2017-11-19T00:50:56.323Z,98.54
2017-11-19T00:52:49.584Z,98.73
2017-11-19T00:53:49.507Z,99.20
2017-11-19T00:55:42.781Z,99.20
2017-11-19T00:56:42.691Z,99.39
2017-11-19T00:58:35.945Z,99.58
2017-11-19T00:59:35.874Z,99.20
2017-11-19T01:01:29.148Z,99.68
2017-11-19T01:02:29.058Z,99.30
2017-11-19T01:04:22.415Z,99.99
2017-11-19T01:05:22.306Z,99.68
2017-11-19T01:07:15.581Z,99.49
2017-11-19T01:08:15.488Z,99.99
2017-11-19T01:10:08.761Z,99.99
2017-11-19T01:11:08.669Z,99.91
2017-11-19T01:13:01.930Z,99.99
2017-11-19T01:14:01.855Z,99.99
2017-11-19T01:15:55.124Z,99.99
2017-11-19T01:16:55.034Z,99.99
2017-11-19T01:18:48.369Z,99.99
2017-11-19T01:19:48.299Z,99.82
2017-11-19T01:21:41.571Z,99.99
2017-11-19T01:22:41.485Z,99.99
2017-11-19T01:24:34.741Z,99.99
2017-11-19T01:25:34.668Z,99.99
2017-11-19T01:27:27.944Z,99.99
2017-11-19T01:28:27.852Z,99.99
2017-11-19T01:30:21.124Z,99.99
2017-11-19T01:31:21.034Z,99.99
2017-11-19T01:33:14.370Z,99.99
2017-11-19T01:34:14.302Z,99.99
2017-11-19T01:36:07.572Z,99.99
2017-11-19T01:37:07.480Z,99.99
2017-11-19T01:39:00.735Z,99.99
2017-11-19T01:40:00.663Z,99.99
2017-11-19T01:41:53.939Z,99.99
2017-11-19T01:42:53.847Z,99.99
2017-11-19T01:44:47.102Z,99.99
2017-11-19T01:45:47.037Z,99.99
2017-11-19T01:47:40.392Z,99.91
2017-11-19T01:48:40.304Z,99.99
2017-11-19T01:50:33.571Z,99.99
2017-11-19T01:51:33.479Z,99.99
2017-11-19T01:53:26.734Z,99.99
2017-11-19T01:54:26.660Z,99.99
2017-11-19T01:56:19.932Z,99.99
2017-11-19T01:57:19.844Z,99.99
2017-11-19T01:59:13.094Z,99.99
2017-11-19T02:00:13.015Z,99.72
2017-11-19T02:02:06.290Z,99.99
2017-11-19T02:03:06.198Z,99.99
2017-11-19T02:04:59.453Z,99.91
2017-11-19T02:05:59.381Z,99.72
2017-11-19T02:07:52.651Z,99.99
2017-11-19T02:08:52.566Z,99.44
2017-11-19T02:10:45.831Z,99.72
2017-11-19T02:11:45.742Z,99.63
2017-11-19T02:13:38.994Z,99.53
2017-11-19T02:14:38.923Z,99.44
2017-11-19T02:16:32.194Z,99.15
2017-11-19T02:17:32.101Z,99.34
2017-11-19T02:19:25.372Z,99.06
2017-11-19T02:20:25.298Z,99.63
2017-11-19T02:22:18.568Z,99.63
2017-11-19T02:23:18.477Z,99.63
2017-11-19T02:25:11.731Z,99.63
2017-11-19T02:26:11.658Z,99.53
2017-11-19T02:28:04.932Z,99.15
2017-11-19T02:29:04.839Z,99.25
2017-11-19T02:30:58.109Z,99.44
2017-11-19T02:31:58.022Z,99.25
2017-11-19T02:33:51.278Z,98.87
2017-11-19T02:34:51.203Z,99.34
2017-11-19T02:36:44.470Z,99.34
2017-11-19T02:37:44.392Z,98.77
2017-11-19T02:39:37.627Z,98.39
2017-11-19T02:40:37.550Z,98.77
2017-11-19T02:42:30.828Z,98.77
2017-11-19T02:43:30.734Z,98.02
2017-11-19T02:45:23.989Z,98.11
2017-11-19T02:46:23.915Z,97.92
2017-11-19T02:48:17.191Z,97.83
2017-11-19T02:49:17.097Z,97.40
2017-11-19T02:51:10.351Z,97.83
2017-11-19T02:52:10.280Z,97.35
2017-11-19T02:54:03.549Z,97.16
2017-11-19T02:55:03.459Z,97.26
2017-11-19T02:56:56.729Z,97.07
2017-11-19T02:57:56.638Z,96.64
2017-11-19T02:59:49.891Z,96.97
2017-11-19T03:00:49.820Z,97.59
2017-11-19T03:02:43.092Z,96.73
2017-11-19T03:03:43.001Z,96.73
2017-11-19T03:05:36.254Z,97.07
2017-11-19T03:06:36.179Z,96.22
2017-11-19T03:08:29.451Z,96.12
2017-11-19T03:09:29.366Z,96.22
2017-11-19T03:11:22.614Z,96.12
2017-11-19T03:12:22.541Z,96.03
2017-11-19T03:14:15.811Z,96.31
2017-11-19T03:15:15.720Z,94.98
2017-11-19T03:17:09.997Z,96.26
2017-11-19T03:18:09.902Z,96.12
2017-11-19T03:20:03.154Z,96.26
2017-11-19T03:21:03.081Z,96.07
2017-11-19T03:22:56.357Z,96.26
2017-11-19T03:23:56.267Z,96.36
2017-11-19T03:25:49.518Z,96.64
2017-11-19T03:26:49.446Z,96.36
2017-11-19T03:28:42.721Z,96.64
2017-11-19T03:29:42.627Z,96.55
2017-11-19T03:31:35.877Z,96.45
2017-11-19T03:32:35.805Z,96.64
2017-11-19T03:34:29.081Z,96.45
2017-11-19T03:35:29.004Z,96.55
2017-11-19T03:37:22.261Z,96.73
2017-11-19T03:38:22.171Z,96.92
2017-11-19T03:40:15.421Z,96.55
2017-11-19T03:41:15.350Z,96.55
2017-11-19T03:43:08.630Z,96.26
2017-11-19T03:44:08.530Z,95.88
2017-11-19T03:46:01.790Z,96.45
2017-11-19T03:47:01.711Z,96.26
2017-11-19T03:48:54.989Z,95.88
2017-11-19T03:49:54.884Z,95.88
2017-11-19T03:51:48.137Z,96.17
2017-11-19T03:52:48.066Z,96.31
2017-11-19T03:54:41.388Z,96.31
2017-11-19T03:55:41.292Z,96.26
2017-11-19T03:57:34.564Z,96.45
2017-11-19T03:58:34.472Z,96.17
2017-11-19T04:00:27.725Z,96.17
2017-11-19T04:01:27.654Z,96.55
2017-11-19T04:03:20.979Z,96.73
2017-11-19T04:04:20.834Z,96.73
2017-11-19T04:06:14.089Z,96.92
2017-11-19T04:07:14.020Z,97.02
2017-11-19T04:09:07.286Z,96.73
2017-11-19T04:10:07.192Z,96.64
2017-11-19T04:12:00.483Z,97.02
2017-11-19T04:13:00.377Z,96.83
2017-11-19T04:14:53.648Z,96.64
2017-11-19T04:15:53.560Z,96.83
2017-11-19T04:17:46.835Z,96.92
2017-11-19T04:18:46.741Z,96.73
2017-11-19T04:20:39.991Z,96.64
2017-11-19T04:21:39.920Z,96.64
2017-11-19T04:23:33.190Z,96.92
2017-11-19T04:24:33.103Z,96.64
2017-11-19T04:26:26.350Z,96.55
2017-11-19T04:27:26.281Z,96.36
2017-11-19T04:29:19.543Z,96.92
2017-11-19T04:30:19.456Z,96.73
2017-11-19T04:32:12.704Z,96.07
2017-11-19T04:33:12.630Z,96.36
2017-11-19T04:35:05.904Z,95.88
2017-11-19T04:36:05.830Z,95.41
2017-11-19T04:37:59.085Z,95.60
2017-11-19T04:38:58.993Z,95.69
2017-11-19T04:40:52.245Z,95.22
2017-11-19T04:41:52.177Z,96.26
2017-11-19T04:43:45.446Z,95.88
2017-11-19T04:44:45.355Z,95.69
2017-11-19T04:46:38.617Z,95.88
2017-11-19T04:47:38.545Z,95.50
2017-11-19T04:49:31.816Z,95.93
2017-11-19T04:50:31.725Z,96.12
2017-11-19T04:52:24.978Z,96.31
2017-11-19T04:53:24.905Z,95.93
2017-11-19T04:55:18.175Z,95.93
2017-11-19T04:56:18.085Z,95.55
2017-11-19T04:58:11.388Z,95.26
2017-11-19T04:59:11.294Z,95.65
2017-11-19T05:01:04.548Z,95.45
2017-11-19T05:02:04.477Z,95.55
2017-11-19T05:03:57.747Z,95.55
2017-11-19T05:04:57.657Z,95.65
2017-11-19T05:06:50.920Z,95.26
2017-11-19T05:07:50.849Z,95.74
2017-11-19T05:09:44.114Z,95.36
2017-11-19T05:10:44.021Z,95.93
2017-11-19T05:12:37.274Z,95.55
2017-11-19T05:13:37.202Z,95.65
2017-11-19T05:15:30.536Z,95.07
2017-11-19T05:16:30.381Z,94.79
2017-11-19T05:18:23.665Z,95.36
2017-11-19T05:19:23.563Z,95.07
2017-11-19T05:21:16.807Z,95.36
2017-11-19T05:22:16.732Z,95.65
2017-11-19T05:24:10.005Z,95.07
2017-11-19T05:25:09.914Z,95.17
2017-11-19T05:27:03.167Z,95.45
2017-11-19T05:28:03.094Z,95.45
2017-11-19T05:29:56.364Z,95.36
2017-11-19T05:30:56.275Z,95.45
2017-11-19T05:32:49.526Z,95.55
2017-11-19T05:33:49.458Z,96.41
2017-11-19T05:35:42.721Z,97.16
2017-11-19T05:36:42.627Z,97.83
2017-11-19T05:38:35.891Z,97.92
2017-11-19T05:39:35.799Z,96.88
2017-11-19T05:41:29.056Z,98.30
2017-11-19T05:42:28.982Z,99.34
2017-11-19T05:44:22.258Z,99.99
2017-11-19T05:45:22.163Z,99.15
2017-11-19T05:47:15.415Z,99.91
2017-11-19T05:48:15.343Z,99.99
2017-11-19T05:50:08.612Z,99.99
2017-11-19T05:51:08.522Z,99.86
2017-11-19T05:53:01.776Z,99.67
2017-11-19T05:54:01.706Z,99.99
2017-11-19T05:55:54.979Z,99.86
2017-11-19T05:56:54.884Z,99.99
2017-11-19T05:58:48.155Z,99.99
2017-11-19T05:59:48.062Z,99.99
2017-11-19T06:01:41.369Z,99.99
2017-11-19T06:02:41.296Z,99.99
2017-11-19T06:04:34.567Z,99.99
2017-11-19T06:05:34.476Z,99.99
2017-11-19T06:07:27.728Z,99.99
2017-11-19T06:08:27.658Z,99.99
2017-11-19T06:10:20.930Z,99.99
2017-11-19T06:11:20.842Z,99.99
2017-11-19T06:13:14.093Z,99.96
2017-11-19T06:14:14.020Z,99.99
2017-11-19T06:16:07.286Z,99.99
2017-11-19T06:17:07.195Z,99.99
2017-11-19T06:19:00.457Z,99.99
2017-11-19T06:20:00.366Z,99.99
2017-11-19T06:21:53.619Z,99.99
2017-11-19T06:22:53.546Z,99.99
2017-11-19T06:24:46.818Z,99.99
2017-11-19T06:25:46.730Z,99.67
2017-11-19T06:27:39.976Z,99.58
2017-11-19T06:28:39.905Z,99.29
2017-11-19T06:30:33.176Z,99.39
2017-11-19T06:31:33.084Z,99.67
2017-11-19T06:33:26.336Z,99.48
2017-11-19T06:34:26.262Z,99.67
2017-11-19T06:36:19.538Z,99.39
2017-11-19T06:37:19.445Z,98.63
2017-11-19T06:39:12.718Z,98.72
2017-11-19T06:40:12.612Z,98.06
2017-11-19T06:42:05.869Z,97.87
2017-11-19T06:43:05.798Z,98.25
2017-11-19T06:44:59.075Z,98.82
2017-11-19T06:45:58.981Z,99.20
2017-11-19T06:47:53.230Z,98.35
2017-11-19T06:48:53.151Z,99.29
2017-11-19T06:50:46.420Z,99.20
2017-11-19T06:51:46.329Z,99.10
2017-11-19T06:53:39.606Z,99.29
2017-11-19T06:54:39.508Z,99.67
2017-11-19T06:56:32.760Z,99.48
2017-11-19T06:57:32.687Z,99.29
2017-11-19T06:59:25.949Z,98.72
2017-11-19T07:00:25.859Z,98.25
2017-11-19T07:02:19.110Z,98.44
2017-11-19T07:03:19.037Z,98.72
2017-11-19T07:05:12.309Z,99.48
2017-11-19T07:06:12.221Z,99.20
2017-11-19T07:08:05.480Z,99.01
2017-11-19T07:09:05.398Z,99.48
2017-11-19T07:10:58.686Z,99.29
2017-11-19T07:11:58.578Z,99.58
2017-11-19T07:13:51.833Z,99.58
2017-11-19T07:14:51.758Z,99.48
2017-11-19T07:16:45.028Z,99.67
2017-11-19T07:17:44.937Z,99.20
2017-11-19T07:19:38.203Z,99.77
2017-11-19T07:20:38.113Z,99.10
2017-11-19T07:22:31.362Z,99.48
2017-11-19T07:23:31.287Z,99.48
2017-11-19T07:25:24.561Z,99.20
2017-11-19T07:26:24.466Z,99.86
2017-11-19T07:28:17.721Z,99.39
2017-11-19T07:29:17.653Z,99.58
2017-11-19T07:31:10.922Z,99.29
2017-11-19T07:32:10.829Z,99.20
2017-11-19T07:34:05.074Z,99.29
2017-11-19T07:35:04.997Z,99.67
2017-11-19T07:36:58.270Z,99.67
2017-11-19T07:37:58.179Z,99.67
2017-11-19T07:39:51.438Z,99.20
2017-11-19T07:40:51.346Z,99.29
2017-11-19T07:42:44.602Z,99.20
2017-11-19T07:43:44.528Z,99.10
2017-11-19T07:45:37.802Z,99.10
2017-11-19T07:46:37.708Z,98.35
2017-11-19T07:48:30.952Z,98.44
2017-11-19T07:49:30.876Z,98.25
2017-11-19T07:51:24.137Z,97.78
2017-11-19T07:52:24.048Z,98.02
2017-11-19T07:54:17.365Z,97.92
2017-11-19T07:55:17.293Z,97.16
2017-11-19T07:57:10.567Z,96.78
2017-11-19T07:58:10.489Z,96.22
2017-11-19T08:00:03.764Z,95.84
2017-11-19T08:01:03.653Z,96.03
2017-11-19T08:02:56.894Z,96.31
2017-11-19T08:03:56.824Z,96.31
2017-11-19T08:05:50.094Z,95.31
2017-11-19T08:06:50.010Z,95.12
2017-11-19T08:08:43.277Z,95.26
2017-11-19T08:09:43.206Z,95.84
2017-11-19T08:11:36.480Z,94.18
2017-11-19T08:12:36.386Z,94.18
2017-11-19T08:14:29.643Z,94.27
2017-11-19T08:15:29.570Z,94.42
2017-11-19T08:17:22.841Z,94.46
2017-11-19T08:18:22.752Z,93.61
2017-11-19T08:20:16.025Z,92.38
2017-11-19T08:21:15.935Z,92.47
2017-11-19T08:23:09.181Z,91.47
2017-11-19T08:24:09.108Z,91.47
2017-11-19T08:26:02.381Z,90.24
2017-11-19T08:27:02.290Z,89.67
2017-11-19T08:28:55.539Z,87.91
2017-11-19T08:29:55.481Z,87.05
2017-11-19T08:31:48.738Z,89.48
2017-11-19T08:32:48.650Z,89.24
2017-11-19T08:34:41.905Z,87.68
2017-11-19T08:35:41.837Z,87.77
2017-11-19T08:37:35.103Z,87.43
2017-11-19T08:38:35.013Z,86.30
2017-11-19T08:40:28.281Z,85.86
2017-11-19T08:41:28.194Z,84.63
2017-11-19T08:43:21.453Z,85.25
2017-11-19T08:44:21.385Z,85.25
2017-11-19T08:46:14.658Z,86.77
2017-11-19T08:47:14.569Z,86.87
2017-11-19T08:49:07.816Z,86.05
2017-11-19T08:50:07.748Z,84.72
2017-11-19T08:52:01.041Z,85.63
2017-11-19T08:53:00.935Z,87.05
2017-11-19T08:54:54.194Z,89.00
2017-11-19T08:55:54.133Z,89.48
2017-11-19T08:57:47.391Z,91.09
2017-11-19T08:58:47.303Z,91.00
2017-11-19T09:00:40.582Z,90.81
2017-11-19T09:01:40.487Z,90.33
2017-11-19T09:03:33.748Z,90.43
2017-11-19T09:04:33.678Z,90.71
2017-11-19T09:06:26.953Z,91.47
2017-11-19T09:07:26.864Z,90.90
2017-11-19T09:09:20.116Z,91.28
2017-11-19T09:10:20.040Z,91.47
2017-11-19T09:12:13.384Z,91.94
2017-11-19T09:13:13.293Z,92.33
2017-11-19T09:15:06.622Z,91.66
2017-11-19T09:16:06.468Z,90.90
2017-11-19T09:17:59.742Z,91.75
2017-11-19T09:18:59.653Z,89.86
2017-11-19T09:20:52.932Z,88.95
2017-11-19T09:21:52.838Z,88.95
2017-11-19T09:23:46.093Z,89.05
2017-11-19T09:24:46.030Z,89.00
2017-11-19T09:26:39.309Z,89.72
2017-11-19T09:27:39.219Z,88.95
2017-11-19T09:29:32.462Z,83.62
2017-11-19T09:30:32.390Z,81.29
2017-11-19T09:32:25.774Z,82.49
2017-11-19T09:33:25.575Z,84.16
2017-11-19T09:35:18.833Z,87.05
2017-11-19T09:36:18.764Z,87.15
2017-11-19T09:38:12.035Z,87.91
2017-11-19T09:39:11.941Z,87.34
2017-11-19T09:41:05.327Z,87.43
2017-11-19T09:42:05.132Z,87.53
2017-11-19T09:43:58.384Z,83.25
2017-11-19T09:44:58.316Z,82.29
2017-11-19T09:46:51.592Z,80.24
2017-11-19T09:47:51.504Z,79.49
2017-11-19T09:49:44.756Z,80.63
2017-11-19T09:50:44.681Z,80.30
2017-11-19T09:52:37.966Z,81.68
2017-11-19T09:53:37.875Z,82.20
2017-11-19T09:55:31.132Z,78.30
2017-11-19T09:56:31.063Z,80.58
2017-11-19T09:58:24.381Z,81.87
2017-11-19T09:59:24.292Z,81.82
2017-11-19T10:01:17.575Z,80.30
2017-11-19T10:02:17.487Z,81.02
2017-11-19T10:04:10.748Z,82.64
2017-11-19T10:05:10.690Z,82.35
2017-11-19T10:07:03.955Z,82.45
2017-11-19T10:08:03.865Z,82.54
2017-11-19T10:09:57.122Z,81.73
2017-11-19T10:10:57.059Z,81.35
2017-11-19T10:12:50.384Z,81.87
2017-11-19T10:13:50.298Z,82.16
2017-11-19T10:15:43.555Z,82.45
2017-11-19T10:16:43.486Z,82.73
2017-11-19T10:18:36.769Z,83.01
2017-11-19T10:19:36.680Z,82.54
2017-11-19T10:21:29.953Z,81.35
2017-11-19T10:22:29.865Z,81.78
2017-11-19T10:24:23.138Z,82.92
2017-11-19T10:25:23.056Z,83.20
2017-11-19T10:27:16.387Z,82.92
2017-11-19T10:28:16.300Z,82.64
2017-11-19T10:30:09.556Z,81.25
2017-11-19T10:31:09.487Z,80.68
2017-11-19T10:33:02.772Z,81.21
2017-11-19T10:34:02.684Z,82.54
2017-11-19T10:35:55.939Z,82.10
2017-11-19T10:36:55.873Z,81.92
2017-11-19T10:38:49.153Z,82.73
2017-11-19T10:39:49.053Z,82.92
2017-11-19T10:41:42.385Z,83.39
2017-11-19T10:42:42.296Z,83.30
2017-11-19T10:44:35.557Z,84.16
2017-11-19T10:45:35.488Z,83.97
2017-11-19T10:47:28.763Z,84.20
2017-11-19T10:48:28.674Z,83.53
2017-11-19T10:50:21.935Z,82.68
2017-11-19T10:51:21.863Z,82.87
2017-11-19T10:53:15.141Z,82.96
2017-11-19T10:54:15.049Z,83.06
2017-11-19T10:56:08.365Z,83.53
2017-11-19T10:57:08.295Z,82.87
2017-11-19T10:59:01.566Z,82.10
2017-11-19T11:00:01.472Z,82.10
2017-11-19T11:01:54.751Z,82.87
2017-11-19T11:02:54.665Z,83.34
2017-11-19T11:04:47.924Z,82.96
2017-11-19T11:05:47.948Z,82.96
2017-11-19T11:07:41.160Z,82.58
2017-11-19T11:08:41.046Z,82.29
2017-11-19T11:10:34.341Z,81.25
2017-11-19T11:11:34.236Z,81.92
2017-11-19T11:13:27.551Z,81.54
2017-11-19T11:14:27.460Z,81.44
2017-11-19T11:16:20.715Z,81.54
2017-11-19T11:17:20.639Z,81.25
2017-11-19T11:19:13.910Z,81.54
2017-11-19T11:20:13.884Z,81.73
2017-11-19T11:22:07.100Z,80.58
2017-11-19T11:23:07.013Z,80.87
2017-11-19T11:25:00.272Z,80.77
2017-11-19T11:26:00.203Z,81.01
2017-11-19T11:27:53.481Z,80.34
2017-11-19T11:28:53.392Z,79.96
2017-11-19T11:30:46.650Z,79.68
2017-11-19T11:31:46.582Z,79.77
2017-11-19T11:33:39.858Z,79.68
2017-11-19T11:34:39.782Z,79.77
2017-11-19T11:36:33.077Z,79.20
2017-11-19T11:37:32.991Z,79.30
2017-11-19T11:39:26.257Z,79.39
2017-11-19T11:40:26.190Z,79.68
2017-11-19T11:42:20.031Z,78.72
2017-11-19T11:43:19.384Z,78.72
2017-11-19T11:45:12.635Z,78.06
2017-11-19T11:46:12.574Z,76.92
2017-11-19T11:48:05.843Z,77.53
2017-11-19T11:49:05.764Z,77.01
2017-11-19T11:50:59.029Z,77.87
2017-11-19T11:51:58.950Z,77.58
2017-11-19T11:53:52.230Z,77.72
2017-11-19T11:54:52.141Z,77.20
2017-11-19T11:56:45.439Z,77.39
2017-11-19T11:57:45.346Z,77.39
2017-11-19T11:59:38.593Z,77.77
2017-11-19T12:00:38.530Z,77.20
2017-11-19T12:02:31.805Z,77.68
2017-11-19T12:03:31.717Z,77.11
2017-11-19T12:05:24.974Z,77.11
2017-11-19T12:06:24.938Z,77.39
2017-11-19T12:08:18.257Z,77.97
2017-11-19T12:09:18.096Z,77.97
2017-11-19T12:11:11.364Z,78.63
2017-11-19T12:12:11.285Z,78.25
2017-11-19T12:14:04.562Z,79.11
2017-11-19T12:15:04.486Z,78.91
2017-11-19T12:16:57.769Z,79.39
2017-11-19T12:17:57.681Z,79.30
2017-11-19T12:19:50.928Z,79.73
2017-11-19T12:20:50.862Z,79.25
2017-11-19T12:22:44.169Z,79.92
2017-11-19T12:23:44.079Z,79.06
2017-11-19T12:25:37.337Z,78.78
2017-11-19T12:26:37.280Z,79.06
2017-11-19T12:28:30.544Z,78.69
2017-11-19T12:29:30.451Z,78.63
2017-11-19T12:31:23.715Z,77.39
2017-11-19T12:32:23.645Z,77.87
2017-11-19T12:34:16.924Z,77.30
2017-11-19T12:35:16.828Z,77.58
2017-11-19T12:37:10.120Z,77.07
2017-11-19T12:38:10.027Z,77.64
2017-11-19T12:40:03.287Z,77.07
2017-11-19T12:41:03.226Z,76.78
2017-11-19T12:42:56.494Z,77.83
2017-11-19T12:43:56.414Z,78.21
2017-11-19T12:45:49.673Z,77.64
2017-11-19T12:46:49.600Z,77.45
2017-11-19T12:48:43.107Z,77.64
2017-11-19T12:49:43.019Z,77.55
2017-11-19T12:51:36.279Z,78.50
2017-11-19T12:52:36.207Z,78.30
2017-11-19T12:54:29.485Z,78.78
2017-11-19T12:55:29.408Z,79.06
2017-11-19T12:57:22.669Z,79.16
2017-11-19T12:58:22.582Z,79.63
2017-11-19T13:00:15.857Z,80.30
2017-11-19T13:01:15.782Z,80.30
2017-11-19T13:03:09.096Z,80.77
2017-11-19T13:04:08.971Z,80.40
2017-11-19T13:06:02.317Z,80.40
2017-11-19T13:07:02.185Z,80.30
2017-11-19T13:08:55.456Z,80.58
2017-11-19T13:09:55.367Z,81.25
2017-11-19T13:11:48.624Z,81.25
2017-11-19T13:12:48.556Z,80.49
2017-11-19T13:14:41.831Z,80.40
2017-11-19T13:15:41.742Z,80.58
2017-11-19T13:17:35.018Z,81.16
2017-11-19T13:18:34.925Z,81.12
2017-11-19T13:20:29.191Z,80.11
2017-11-19T13:21:29.120Z,81.06
2017-11-19T13:23:22.396Z,80.77
2017-11-19T13:24:22.307Z,80.77
2017-11-19T13:26:15.565Z,80.30
2017-11-19T13:27:15.504Z,80.30
2017-11-19T13:29:08.766Z,79.73
2017-11-19T13:30:08.673Z,79.79
2017-11-19T13:32:01.962Z,78.88
2017-11-19T13:33:01.898Z,78.74
2017-11-19T13:34:55.195Z,78.97
2017-11-19T13:35:55.106Z,78.93
2017-11-19T13:37:48.411Z,78.97
2017-11-19T13:38:48.301Z,79.54
2017-11-19T13:40:41.560Z,80.16
2017-11-19T13:41:41.486Z,80.55
2017-11-19T13:43:34.759Z,80.96
2017-11-19T13:44:34.697Z,81.02
2017-11-19T13:46:27.931Z,81.63
2017-11-19T13:47:27.862Z,81.06
2017-11-19T13:49:21.193Z,82.10
2017-11-19T13:50:21.035Z,82.29
2017-11-19T13:52:14.364Z,82.01
2017-11-19T13:53:14.293Z,82.49
2017-11-19T13:55:07.571Z,82.58
2017-11-19T13:56:07.479Z,82.68
2017-11-19T13:58:00.752Z,82.58
2017-11-19T13:59:00.670Z,82.01
2017-11-19T14:00:53.938Z,82.58
2017-11-19T14:01:53.876Z,82.35
2017-11-19T14:03:47.135Z,81.21
2017-11-19T14:04:47.045Z,81.02
2017-11-19T14:06:40.365Z,80.55
2017-11-19T14:07:40.299Z,81.12
2017-11-19T14:09:33.565Z,80.55
2017-11-19T14:10:33.472Z,80.64
2017-11-19T14:12:26.738Z,78.83
2017-11-19T14:13:26.672Z,78.93
2017-11-19T14:15:19.944Z,77.89
2017-11-19T14:16:19.859Z,78.17
2017-11-19T14:18:13.130Z,78.74
2017-11-19T14:19:13.043Z,78.55
2017-11-19T14:21:06.369Z,78.93
2017-11-19T14:22:06.296Z,79.79
2017-11-19T14:23:59.572Z,78.99
2017-11-19T14:24:59.481Z,79.74
2017-11-19T14:26:52.747Z,80.16
2017-11-19T14:27:52.678Z,80.13
2017-11-19T14:29:45.943Z,80.60
2017-11-19T14:30:45.859Z,81.26
2017-11-19T14:32:39.114Z,80.32
2017-11-19T14:33:39.044Z,80.26
2017-11-19T14:35:32.320Z,80.26
2017-11-19T14:36:32.226Z,80.45
2017-11-19T14:38:25.616Z,80.16
2017-11-19T14:39:25.411Z,80.16
2017-11-19T14:41:18.670Z,80.45
2017-11-19T14:42:18.600Z,80.35
2017-11-19T14:44:11.873Z,81.21
2017-11-19T14:45:11.784Z,81.12
2017-11-19T14:47:05.048Z,80.93
2017-11-19T14:48:04.975Z,80.83
2017-11-19T14:49:58.252Z,80.93
2017-11-19T14:50:58.162Z,80.83
2017-11-19T14:52:52.413Z,80.93
2017-11-19T14:53:52.356Z,80.26
2017-11-19T14:55:45.702Z,80.74
2017-11-19T14:56:45.537Z,81.30
2017-11-19T14:58:38.812Z,81.40
2017-11-19T14:59:38.733Z,81.78
2017-11-19T15:01:31.985Z,81.78
2017-11-19T15:02:31.908Z,81.97
2017-11-19T15:04:25.182Z,82.64
2017-11-19T15:05:25.092Z,82.45
2017-11-19T15:07:18.351Z,82.54
2017-11-19T15:08:18.278Z,82.45
2017-11-19T15:10:11.587Z,82.82
2017-11-19T15:11:11.464Z,82.82
2017-11-19T15:13:04.743Z,83.30
2017-11-19T15:14:04.672Z,83.20
2017-11-19T15:15:57.946Z,83.30
2017-11-19T15:16:57.854Z,83.78
2017-11-19T15:18:51.122Z,84.21
2017-11-19T15:19:51.033Z,84.06
2017-11-19T15:21:44.292Z,84.25
2017-11-19T15:22:44.218Z,84.06
2017-11-19T15:24:37.499Z,84.16
2017-11-19T15:25:37.408Z,83.64
2017-11-19T15:27:30.667Z,83.87
2017-11-19T15:28:30.636Z,83.20
2017-11-19T15:30:23.866Z,83.39
2017-11-19T15:31:23.779Z,83.20
2017-11-19T15:33:17.035Z,83.39
2017-11-19T15:34:16.961Z,83.45
2017-11-19T15:36:10.247Z,82.92
2017-11-19T15:37:10.149Z,82.69
2017-11-19T15:39:03.415Z,82.12
2017-11-19T15:40:03.328Z,82.45
2017-11-19T15:41:56.582Z,81.21
2017-11-19T15:42:56.511Z,81.12
2017-11-19T15:44:49.785Z,81.21
2017-11-19T15:45:49.696Z,81.40
2017-11-19T15:47:42.949Z,81.68
2017-11-19T15:48:42.887Z,80.79
2017-11-19T15:50:36.154Z,81.17
2017-11-19T15:51:36.074Z,81.59
2017-11-19T15:53:29.364Z,82.21
2017-11-19T15:54:29.294Z,81.84
2017-11-19T15:56:22.568Z,82.40
2017-11-19T15:57:22.480Z,82.50
2017-11-19T15:59:15.743Z,82.88
2017-11-19T16:00:15.653Z,83.36
2017-11-19T16:02:08.913Z,83.54
2017-11-19T16:03:08.840Z,84.11
2017-11-19T16:05:02.115Z,83.83
2017-11-19T16:06:02.028Z,83.92
2017-11-19T16:07:55.284Z,83.92
2017-11-19T16:08:55.241Z,83.92
2017-11-19T16:10:48.488Z,84.21
2017-11-19T16:11:48.396Z,84.11
2017-11-19T16:13:42.654Z,85.06
2017-11-19T16:14:42.581Z,84.87
2017-11-19T16:16:35.857Z,84.97
2017-11-19T16:17:35.767Z,85.35
2017-11-19T16:19:29.037Z,85.72
2017-11-19T16:20:28.960Z,85.44
2017-11-19T16:22:22.209Z,85.82
2017-11-19T16:23:22.137Z,85.91
2017-11-19T16:25:16.411Z,86.87
2017-11-19T16:26:16.322Z,86.39
2017-11-19T16:28:09.576Z,86.58
2017-11-19T16:29:09.508Z,86.87
2017-11-19T16:31:02.782Z,87.43
2017-11-19T16:32:02.696Z,86.77
2017-11-19T16:33:56.945Z,86.96
2017-11-19T16:34:56.873Z,86.87
2017-11-19T16:36:50.177Z,87.34
2017-11-19T16:37:50.085Z,87.34
2017-11-19T16:39:43.360Z,86.87
2017-11-19T16:40:43.289Z,87.24
2017-11-19T16:42:36.530Z,87.15
2017-11-19T16:43:36.455Z,87.24
2017-11-19T16:45:29.730Z,87.05
2017-11-19T16:46:29.643Z,87.05
2017-11-19T16:48:22.903Z,87.15
2017-11-19T16:49:22.830Z,87.68
2017-11-19T16:51:16.105Z,87.68
2017-11-19T16:52:16.014Z,87.72
2017-11-19T16:54:10.272Z,87.34
2017-11-19T16:55:10.202Z,87.49
2017-11-19T16:57:03.470Z,87.11
2017-11-19T16:58:03.386Z,87.68
2017-11-19T16:59:56.657Z,87.53
2017-11-19T17:00:56.568Z,87.43
2017-11-19T17:02:49.820Z,87.68
2017-11-19T17:03:49.750Z,88.01
2017-11-19T17:05:43.024Z,88.39
2017-11-19T17:06:42.935Z,88.62
2017-11-19T17:08:36.194Z,88.57
2017-11-19T17:09:36.122Z,88.43
2017-11-19T17:11:29.399Z,88.34
2017-11-19T17:12:29.312Z,88.43
2017-11-19T17:14:22.559Z,88.34
2017-11-19T17:15:22.489Z,88.24
2017-11-19T17:17:15.764Z,88.15
2017-11-19T17:18:15.676Z,87.68
2017-11-19T17:20:08.951Z,87.49
2017-11-19T17:21:08.861Z,87.77
2017-11-19T17:23:02.116Z,87.15
2017-11-19T17:24:02.051Z,87.34
2017-11-19T17:25:55.320Z,87.11
2017-11-19T17:26:55.223Z,87.11
2017-11-19T17:28:48.491Z,86.87
2017-11-19T17:29:48.412Z,86.07
2017-11-19T17:31:41.685Z,85.87
2017-11-19T17:32:41.596Z,86.11
2017-11-19T17:34:34.856Z,86.44
2017-11-19T17:35:34.785Z,86.25
2017-11-19T17:37:28.059Z,85.87
2017-11-19T17:38:27.970Z,86.25
2017-11-19T17:40:21.247Z,86.63
2017-11-19T17:41:21.150Z,86.35
2017-11-19T17:43:14.420Z,86.44
2017-11-19T17:44:14.334Z,86.63
2017-11-19T17:46:07.609Z,86.91
2017-11-19T17:47:07.520Z,86.82
2017-11-19T17:49:00.767Z,86.72
2017-11-19T17:50:00.694Z,87.30
2017-11-19T17:51:53.969Z,86.91
2017-11-19T17:52:53.883Z,87.11
2017-11-19T17:54:47.139Z,87.11
2017-11-19T17:55:47.073Z,87.20
2017-11-19T17:57:40.385Z,87.30
2017-11-19T17:58:40.293Z,87.49
2017-11-19T18:00:33.570Z,87.68
2017-11-19T18:01:33.473Z,87.87
2017-11-19T18:03:26.731Z,88.24
2017-11-19T18:04:26.662Z,88.53
2017-11-19T18:06:19.946Z,88.43
2017-11-19T18:07:19.856Z,89.00
2017-11-19T18:09:13.123Z,88.91
2017-11-19T18:10:13.087Z,89.58
2017-11-19T18:12:06.315Z,89.39
2017-11-19T18:13:06.229Z,89.86
2017-11-19T18:14:59.479Z,89.95
2017-11-19T18:15:59.409Z,90.43
2017-11-19T18:17:52.684Z,90.52
2017-11-19T18:18:52.596Z,90.33
2017-11-19T18:20:45.865Z,90.43
2017-11-19T18:21:45.778Z,90.81
2017-11-19T18:23:39.030Z,91.19
2017-11-19T18:24:38.960Z,90.81
2017-11-19T18:26:32.237Z,90.62
2017-11-19T18:27:32.144Z,90.62
2017-11-19T18:29:25.403Z,91.00
2017-11-19T18:30:25.331Z,90.81
2017-11-19T18:32:18.610Z,90.81
2017-11-19T18:33:18.515Z,90.62
2017-11-19T18:35:11.770Z,90.62